createdAt,value
2022-09-21T00:03:23.659Z,1020.41
2022-09-21T00:13:23.987Z,1020.31
2022-09-21T00:23:24.033Z,1020.33
2022-09-21T00:33:24.339Z,1020.43
2022-09-21T00:43:24.354Z,1020.36
2022-09-21T00:53:24.688Z,1020.30
2022-09-21T01:03:24.691Z,1020.20
2022-09-21T01:13:25.034Z,1020.22
2022-09-21T01:23:25.211Z,1020.20
2022-09-21T01:33:25.287Z,1020.21
2022-09-21T01:43:25.335Z,1020.25
2022-09-21T01:53:25.655Z,1020.21
2022-09-21T02:03:25.695Z,1020.21
2022-09-21T02:13:25.990Z,1020.16
2022-09-21T02:23:26.064Z,1020.17
2022-09-21T02:33:26.119Z,1020.12
2022-09-21T02:43:26.348Z,1020.14
2022-09-21T02:53:26.693Z,1020.19
2022-09-21T03:03:26.733Z,1020.16
2022-09-21T03:13:27.034Z,1020.15
2022-09-21T03:23:27.085Z,1020.22
2022-09-21T03:33:27.389Z,1020.21
2022-09-21T03:43:27.410Z,1020.26
2022-09-21T03:53:27.747Z,1020.35
2022-09-21T04:03:27.766Z,1020.36
2022-09-21T04:13:28.091Z,1020.36
2022-09-21T04:23:28.158Z,1020.42
2022-09-21T04:33:28.227Z,1020.49
2022-09-21T04:43:28.448Z,1020.55
2022-09-21T04:53:28.784Z,1020.52
2022-09-21T05:03:28.894Z,1020.57
2022-09-21T05:13:29.038Z,1020.70
2022-09-21T05:23:29.059Z,1020.67
2022-09-21T05:33:29.373Z,1020.72
2022-09-21T05:43:29.399Z,1020.75
2022-09-21T05:53:29.724Z,1020.77
2022-09-21T06:03:29.779Z,1020.78
2022-09-21T06:13:30.074Z,1020.86
2022-09-21T06:23:30.091Z,1020.89
2022-09-21T06:33:30.429Z,1020.82
2022-09-21T06:43:30.449Z,1020.81
2022-09-21T06:53:30.777Z,1020.80
2022-09-21T07:03:30.803Z,1020.83
2022-09-21T07:13:31.134Z,1020.76
2022-09-21T07:23:31.149Z,1020.80
2022-09-21T07:33:35.758Z,1020.75
2022-09-21T07:43:31.489Z,1020.77
2022-09-21T07:53:31.853Z,1020.83
2022-09-21T08:03:31.876Z,1020.78
2022-09-21T08:13:32.180Z,1020.76
2022-09-21T08:23:32.197Z,1020.77
2022-09-21T08:33:32.581Z,1020.68
2022-09-21T08:43:32.602Z,1020.66
2022-09-21T08:53:33.017Z,1020.70
2022-09-21T09:03:33.072Z,1020.47
2022-09-21T09:13:33.352Z,1020.42
2022-09-21T09:23:33.376Z,1020.34
2022-09-21T09:33:33.674Z,1020.20
2022-09-21T09:43:33.701Z,1020.01
2022-09-21T09:53:34.034Z,1019.88
2022-09-21T10:03:34.051Z,1019.75
2022-09-21T10:13:34.383Z,1019.61
2022-09-21T10:23:34.402Z,1019.44
2022-09-21T10:33:34.731Z,1019.22
2022-09-21T10:43:37.622Z,1019.07
2022-09-21T10:53:36.024Z,1018.99
2022-09-21T11:03:35.352Z,1018.81
2022-09-21T11:13:35.384Z,1018.79
2022-09-21T11:23:35.703Z,1018.68
2022-09-21T11:33:35.724Z,1018.49
2022-09-21T11:43:36.069Z,1018.38
2022-09-21T11:53:36.118Z,1018.24
2022-09-21T12:03:36.395Z,1018.11
2022-09-21T12:13:36.416Z,1017.99
2022-09-21T12:23:36.759Z,1017.99
2022-09-21T12:33:36.794Z,1017.81
2022-09-21T12:43:37.107Z,1017.76
2022-09-21T12:53:37.130Z,1017.73
2022-09-21T13:03:37.463Z,1017.62
2022-09-21T13:13:37.647Z,1017.59
2022-09-21T13:23:37.800Z,1017.44
2022-09-21T13:33:37.812Z,1017.40
2022-09-21T13:43:38.154Z,1017.28
2022-09-21T13:53:38.187Z,1017.21
2022-09-21T14:03:38.503Z,1017.20
2022-09-21T14:13:38.587Z,1017.12
2022-09-21T14:23:38.851Z,1017.16
2022-09-21T14:33:38.920Z,1017.13
2022-09-21T14:43:39.208Z,1017.15
2022-09-21T14:53:39.268Z,1017.14
2022-09-21T15:03:39.511Z,1017.07
2022-09-21T15:13:39.420Z,1017.08
2022-09-21T15:23:39.702Z,1017.07
2022-09-21T15:33:39.740Z,1017.00
2022-09-21T15:43:40.057Z,1017.04
2022-09-21T15:53:40.088Z,1017.08
2022-09-21T16:03:40.437Z,1017.16
2022-09-21T16:13:40.450Z,1017.22
2022-09-21T16:23:40.756Z,1017.37
2022-09-21T16:33:40.791Z,1017.47
2022-09-21T16:43:41.045Z,1017.59
2022-09-21T16:53:41.270Z,1017.63
2022-09-21T17:03:41.533Z,1017.69
2022-09-21T17:13:41.760Z,1017.83
2022-09-21T17:23:42.006Z,1017.89
2022-09-21T17:33:42.231Z,1017.99
2022-09-21T17:43:42.559Z,1018.12
2022-09-21T17:53:42.623Z,1018.22
2022-09-21T18:03:42.908Z,1018.38
2022-09-21T18:13:42.940Z,1018.52
2022-09-21T18:23:43.261Z,1018.62
2022-09-21T18:33:43.294Z,1018.65
2022-09-21T18:43:43.605Z,1018.87
2022-09-21T18:53:43.629Z,1018.94
2022-09-21T19:03:43.980Z,1018.99
2022-09-21T19:13:44.134Z,1019.00
2022-09-21T19:23:44.296Z,1018.98
2022-09-21T19:33:51.839Z,1019.13
2022-09-21T19:43:45.510Z,1019.14
2022-09-21T19:53:44.830Z,1019.16
2022-09-21T20:03:44.864Z,1019.12
2022-09-21T20:13:45.168Z,1019.11
2022-09-21T20:23:48.829Z,1019.10
2022-09-21T20:33:46.264Z,1019.09
2022-09-21T20:43:45.617Z,1019.16
2022-09-21T20:53:45.634Z,1019.22
2022-09-21T21:03:45.999Z,1019.26
2022-09-21T21:13:46.013Z,1019.29
2022-09-21T21:23:46.301Z,1019.37
2022-09-21T21:33:46.338Z,1019.41
2022-09-21T21:43:46.649Z,1019.41
2022-09-21T21:53:46.694Z,1019.40
2022-09-21T22:03:47.007Z,1019.45
2022-09-21T22:13:47.035Z,1019.45
2022-09-21T22:23:47.348Z,1019.44
2022-09-21T22:33:47.382Z,1019.41
2022-09-21T22:43:47.719Z,1019.42
2022-09-21T22:53:47.758Z,1019.47
2022-09-21T23:03:48.099Z,1019.38
2022-09-21T23:13:48.106Z,1019.41
2022-09-21T23:23:48.406Z,1019.43
2022-09-21T23:33:48.433Z,1019.40
2022-09-21T23:43:48.754Z,1019.29
2022-09-21T23:53:48.770Z,1019.41
